createdAt,value
2022-12-15T00:02:19.654Z,-0.10
2022-12-15T00:05:05.817Z,-0.20
2022-12-15T00:07:51.772Z,-0.20
2022-12-15T00:10:38.696Z,-0.30
2022-12-15T00:13:31.698Z,-0.30
2022-12-15T00:16:17.774Z,-0.30
2022-12-15T00:19:03.679Z,-0.50
2022-12-15T00:21:49.770Z,-0.60
2022-12-15T00:24:35.255Z,-0.60
2022-12-15T00:27:20.598Z,-0.60
2022-12-15T00:30:06.006Z,-0.60
2022-12-15T00:32:51.470Z,-0.60
2022-12-15T00:35:37.028Z,-0.80
2022-12-15T00:38:27.694Z,-0.80
2022-12-15T00:40:59.107Z,-0.70
2022-12-15T00:43:31.614Z,-0.70
2022-12-15T00:46:18.225Z,-0.70
2022-12-15T00:48:45.597Z,-0.70
2022-12-15T00:51:13.423Z,-0.90
2022-12-15T00:54:00.294Z,-0.90
2022-12-15T00:56:46.794Z,-0.90
2022-12-15T00:59:33.240Z,-1.00
2022-12-15T01:02:19.365Z,-1.00
2022-12-15T01:05:05.392Z,-1.10
2022-12-15T01:07:50.986Z,-1.10
2022-12-15T01:10:37.967Z,-1.20
2022-12-15T01:13:24.309Z,-1.20
2022-12-15T01:16:09.789Z,-1.20
2022-12-15T01:18:55.324Z,-1.10
2022-12-15T01:21:25.129Z,-1.00
2022-12-15T01:23:53.029Z,-0.90
2022-12-15T01:26:20.257Z,-1.00
2022-12-15T01:28:47.170Z,-1.10
2022-12-15T01:31:14.705Z,-1.10
2022-12-15T01:33:43.618Z,-1.10
2022-12-15T01:36:11.792Z,-1.10
2022-12-15T01:38:38.621Z,-1.10
2022-12-15T01:41:09.426Z,-1.10
2022-12-15T01:43:38.668Z,-1.10
2022-12-15T01:46:15.330Z,-1.10
2022-12-15T01:48:47.469Z,-1.10
2022-12-15T01:51:34.656Z,-1.10
2022-12-15T01:54:01.466Z,-1.10
2022-12-15T01:56:37.086Z,-1.10
2022-12-15T01:59:07.456Z,-1.30
2022-12-15T02:01:34.666Z,-1.20
2022-12-15T02:04:02.954Z,-1.30
2022-12-15T02:06:30.228Z,-1.30
2022-12-15T02:08:59.508Z,-1.20
2022-12-15T02:11:38.095Z,-1.20
2022-12-15T02:14:07.464Z,-1.30
2022-12-15T02:16:48.594Z,-1.40
2022-12-15T02:19:40.659Z,-1.40
2022-12-15T02:22:42.561Z,-1.30
2022-12-15T02:25:19.279Z,-1.30
2022-12-15T02:28:02.066Z,-1.40
2022-12-15T02:30:31.711Z,-1.50
2022-12-15T02:33:18.363Z,-1.50
2022-12-15T02:36:11.706Z,-1.50
2022-12-15T02:38:41.612Z,-1.40
2022-12-15T02:41:33.411Z,-1.50
2022-12-15T02:44:02.257Z,-1.40
2022-12-15T02:46:41.945Z,-1.50
2022-12-15T02:49:33.201Z,-1.40
2022-12-15T02:52:12.168Z,-1.40
2022-12-15T02:54:58.737Z,-1.30
2022-12-15T02:57:40.561Z,-1.30
2022-12-15T03:00:10.561Z,-1.40
2022-12-15T03:02:41.912Z,-1.40
2022-12-15T03:05:09.361Z,-1.40
2022-12-15T03:07:36.145Z,-1.40
2022-12-15T03:10:06.012Z,-1.30
2022-12-15T03:12:32.951Z,-1.30
2022-12-15T03:15:00.078Z,-1.30
2022-12-15T03:17:26.871Z,-1.40
2022-12-15T03:19:53.756Z,-1.40
2022-12-15T03:22:20.921Z,-1.30
2022-12-15T03:24:48.406Z,-1.30
2022-12-15T03:27:15.563Z,-1.30
2022-12-15T03:29:42.379Z,-1.30
2022-12-15T03:32:09.558Z,-1.40
2022-12-15T03:34:36.437Z,-1.40
2022-12-15T03:37:03.231Z,-1.40
2022-12-15T03:39:30.180Z,-1.40
2022-12-15T03:41:56.941Z,-1.40
2022-12-15T03:44:23.816Z,-1.40
2022-12-15T03:46:50.596Z,-1.40
2022-12-15T03:49:17.353Z,-1.50
2022-12-15T03:51:45.075Z,-1.50
2022-12-15T03:54:15.194Z,-1.50
2022-12-15T03:56:42.241Z,-1.50
2022-12-15T03:59:09.099Z,-1.60
2022-12-15T04:01:36.820Z,-1.50
2022-12-15T04:04:05.076Z,-1.50
2022-12-15T04:06:32.355Z,-1.50
2022-12-15T04:08:59.276Z,-1.50
2022-12-15T04:11:26.132Z,-1.50
2022-12-15T04:13:53.198Z,-1.40
2022-12-15T04:16:20.658Z,-1.40
2022-12-15T04:19:08.035Z,-1.40
2022-12-15T04:21:35.012Z,-1.30
2022-12-15T04:24:20.428Z,-1.30
2022-12-15T04:27:05.785Z,-1.20
2022-12-15T04:29:51.356Z,-1.20
2022-12-15T04:32:36.892Z,-1.40
2022-12-15T04:35:23.123Z,-1.30
2022-12-15T04:38:08.601Z,-1.40
2022-12-15T04:40:54.210Z,-1.40
2022-12-15T04:43:39.794Z,-1.40
2022-12-15T04:46:25.236Z,-1.40
2022-12-15T04:49:10.561Z,-1.50
2022-12-15T04:51:56.073Z,-1.50
2022-12-15T04:54:41.598Z,-1.40
2022-12-15T04:57:27.498Z,-1.50
2022-12-15T05:00:12.922Z,-1.50
2022-12-15T05:02:58.343Z,-1.60
2022-12-15T05:05:43.653Z,-1.70
2022-12-15T05:08:28.986Z,-1.60
2022-12-15T05:11:17.210Z,-1.50
2022-12-15T05:14:02.612Z,-1.60
2022-12-15T05:16:47.987Z,-1.50
2022-12-15T05:19:33.406Z,-1.50
2022-12-15T05:22:19.157Z,-1.50
2022-12-15T05:25:04.474Z,-1.60
2022-12-15T05:27:50.013Z,-1.60
2022-12-15T05:30:35.733Z,-1.60
2022-12-15T05:33:06.107Z,-1.50
2022-12-15T05:35:33.301Z,-1.50
2022-12-15T05:38:00.081Z,-1.50
2022-12-15T05:40:27.229Z,-1.60
2022-12-15T05:42:57.339Z,-1.60
2022-12-15T05:45:24.149Z,-1.50
2022-12-15T05:47:55.068Z,-1.60
2022-12-15T05:50:23.295Z,-1.60
2022-12-15T05:52:50.186Z,-1.60
2022-12-15T05:55:18.621Z,-1.50
2022-12-15T05:57:51.377Z,-1.50
2022-12-15T06:00:18.519Z,-1.50
2022-12-15T06:02:45.402Z,-1.50
2022-12-15T06:05:12.311Z,-1.40
2022-12-15T06:07:39.243Z,-1.50
2022-12-15T06:10:06.721Z,-1.50
2022-12-15T06:12:33.575Z,-1.60
2022-12-15T06:15:00.415Z,-1.60
2022-12-15T06:17:27.155Z,-1.70
2022-12-15T06:19:54.256Z,-1.60
2022-12-15T06:22:21.017Z,-1.70
2022-12-15T06:24:47.850Z,-1.70
2022-12-15T06:27:14.929Z,-1.70
2022-12-15T06:29:41.764Z,-1.80
2022-12-15T06:32:08.539Z,-1.80
2022-12-15T06:34:35.474Z,-1.70
2022-12-15T06:37:02.560Z,-1.70
2022-12-15T06:39:30.131Z,-1.80
2022-12-15T06:41:56.921Z,-1.70
2022-12-15T06:44:23.767Z,-1.70
2022-12-15T06:46:50.557Z,-1.80
2022-12-15T06:49:17.449Z,-1.90
2022-12-15T06:51:45.123Z,-1.80
2022-12-15T06:54:12.166Z,-1.80
2022-12-15T06:56:40.046Z,-1.70
2022-12-15T06:59:07.830Z,-1.80
2022-12-15T07:01:35.169Z,-1.90
2022-12-15T07:04:05.366Z,-1.90
2022-12-15T07:06:36.565Z,-1.80
2022-12-15T07:09:05.220Z,-1.90
2022-12-15T07:11:32.039Z,-1.90
2022-12-15T07:13:59.063Z,-1.90
2022-12-15T07:16:26.768Z,-1.90
2022-12-15T07:18:53.654Z,-1.90
2022-12-15T07:21:20.503Z,-1.90
2022-12-15T07:23:56.764Z,-1.90
2022-12-15T07:26:25.335Z,-1.90
2022-12-15T07:28:53.593Z,-1.80
2022-12-15T07:31:21.834Z,-1.80
2022-12-15T07:33:48.853Z,-1.80
2022-12-15T07:36:16.071Z,-1.90
2022-12-15T07:38:49.972Z,-1.90
2022-12-15T07:41:17.849Z,-2.00
2022-12-15T07:43:45.431Z,-1.90
2022-12-15T07:46:12.258Z,-2.00
2022-12-15T07:48:39.178Z,-2.00
2022-12-15T07:51:12.354Z,-2.00
2022-12-15T07:53:42.351Z,-2.00
2022-12-15T07:56:10.526Z,-1.90
2022-12-15T07:58:38.863Z,-1.90
2022-12-15T08:01:07.798Z,-1.90
2022-12-15T08:03:35.888Z,-1.90
2022-12-15T08:06:11.802Z,-1.90
2022-12-15T08:08:40.184Z,-1.90
2022-12-15T08:11:11.825Z,-1.90
2022-12-15T08:16:27.142Z,-1.80
2022-12-15T08:18:54.050Z,-1.70
2022-12-15T08:21:20.959Z,-1.80
2022-12-15T08:23:48.049Z,-1.80
2022-12-15T08:26:16.914Z,-1.80
2022-12-15T08:28:44.728Z,-1.80
2022-12-15T08:31:14.806Z,-1.80
2022-12-15T08:33:41.761Z,-1.90
2022-12-15T08:36:11.029Z,-1.80
2022-12-15T08:38:39.657Z,-1.80
2022-12-15T08:41:15.963Z,-1.80
2022-12-15T08:43:48.671Z,-1.70
2022-12-15T08:46:21.701Z,-1.80
2022-12-15T08:48:48.932Z,-1.70
2022-12-15T08:51:16.616Z,-1.60
2022-12-15T08:53:43.970Z,-1.70
2022-12-15T08:56:18.412Z,-1.60
2022-12-15T08:58:56.403Z,-1.50
2022-12-15T09:01:25.662Z,-1.50
2022-12-15T09:03:53.968Z,-1.40
2022-12-15T09:06:27.263Z,-1.40
2022-12-15T09:08:56.595Z,-1.40
2022-12-15T09:11:25.588Z,-1.70
2022-12-15T09:13:52.486Z,-1.70
2022-12-15T09:16:20.657Z,-1.60
2022-12-15T09:18:50.412Z,-1.50
2022-12-15T09:21:18.973Z,-1.40
2022-12-15T09:23:51.880Z,-1.30
2022-12-15T09:26:21.011Z,-1.30
2022-12-15T09:28:50.048Z,-1.30
2022-12-15T09:31:23.172Z,-1.20
2022-12-15T09:33:52.500Z,-1.10
2022-12-15T09:36:21.110Z,-1.10
2022-12-15T09:38:48.399Z,-1.10
2022-12-15T09:41:15.240Z,-1.10
2022-12-15T09:44:09.425Z,-1.10
2022-12-15T09:47:06.207Z,-1.20
2022-12-15T09:49:56.342Z,-1.10
2022-12-15T09:52:25.840Z,-1.10
2022-12-15T09:54:53.299Z,-1.10
2022-12-15T09:57:35.926Z,-1.00
2022-12-15T10:00:21.613Z,-0.90
2022-12-15T10:03:03.687Z,-0.90
2022-12-15T10:06:15.443Z,-0.80
2022-12-15T10:09:05.228Z,-0.90
2022-12-15T10:12:01.418Z,-1.00
2022-12-15T10:14:35.585Z,-1.00
2022-12-15T10:17:23.147Z,-0.90
2022-12-15T10:20:18.986Z,-0.80
2022-12-15T10:22:50.332Z,-0.70
2022-12-15T10:25:27.518Z,-0.80
2022-12-15T10:27:56.741Z,-1.00
2022-12-15T10:30:25.097Z,-0.90
2022-12-15T10:33:19.449Z,-0.80
2022-12-15T10:35:47.279Z,-0.80
2022-12-15T10:38:24.554Z,-0.80
2022-12-15T10:40:53.551Z,-0.70
2022-12-15T10:43:37.416Z,-0.70
2022-12-15T10:46:18.648Z,-0.60
2022-12-15T10:48:50.740Z,-0.70
2022-12-15T10:51:44.805Z,-0.70
2022-12-15T10:54:14.323Z,-0.70
2022-12-15T10:56:52.457Z,-0.70
2022-12-15T10:59:36.195Z,-0.80
2022-12-15T11:05:16.148Z,-0.80
2022-12-15T11:07:53.611Z,-0.70
2022-12-15T11:10:26.919Z,-0.70
2022-12-15T11:13:10.432Z,-0.70
2022-12-15T11:15:40.273Z,-0.60
2022-12-15T11:18:27.201Z,-0.60
2022-12-15T11:21:16.652Z,-0.70
2022-12-15T11:24:05.268Z,-0.70
2022-12-15T11:26:55.103Z,-0.80
2022-12-15T11:29:55.407Z,-0.80
2022-12-15T11:32:26.291Z,-0.80
2022-12-15T11:34:53.983Z,-0.80
2022-12-15T11:40:27.159Z,-1.00
2022-12-15T11:42:53.927Z,-0.90
2022-12-15T11:45:53.430Z,-0.90
2022-12-15T11:48:27.739Z,-0.80
2022-12-15T11:51:00.485Z,-0.70
2022-12-15T11:53:43.823Z,-0.60
2022-12-15T11:56:16.630Z,-0.50
2022-12-15T11:59:00.663Z,-0.50
2022-12-15T12:01:55.484Z,-0.60
2022-12-15T12:04:30.455Z,-0.60
2022-12-15T12:07:10.899Z,-0.70
2022-12-15T12:09:43.534Z,-0.70
2022-12-15T12:12:26.726Z,-0.90
2022-12-15T12:15:35.659Z,-1.10
2022-12-15T12:18:12.665Z,-1.00
2022-12-15T12:20:51.313Z,-1.00
2022-12-15T12:23:31.583Z,-0.90
2022-12-15T12:26:05.358Z,-0.90
2022-12-15T12:28:58.094Z,-1.00
2022-12-15T12:31:41.339Z,-1.00
2022-12-15T12:34:38.956Z,-0.90
2022-12-15T12:37:27.842Z,-0.90
2022-12-15T12:40:03.370Z,-0.90
2022-12-15T12:42:40.595Z,-0.90
2022-12-15T12:45:12.632Z,-0.90
2022-12-15T12:47:44.576Z,-1.10
2022-12-15T12:50:20.026Z,-0.90
2022-12-15T12:52:58.090Z,-1.00
2022-12-15T12:55:41.525Z,-1.10
2022-12-15T12:58:34.656Z,-1.10
2022-12-15T13:01:27.566Z,-1.10
2022-12-15T13:04:11.803Z,-1.00
2022-12-15T13:06:39.010Z,-0.90
2022-12-15T13:09:23.071Z,-1.00
2022-12-15T13:11:53.011Z,-1.00
2022-12-15T13:14:32.279Z,-1.10
2022-12-15T13:17:28.504Z,-1.10
2022-12-15T13:19:58.376Z,-1.00
2022-12-15T13:22:35.806Z,-1.10
2022-12-15T13:25:23.920Z,-1.20
2022-12-15T13:27:58.860Z,-1.30
2022-12-15T13:30:25.803Z,-1.30
2022-12-15T13:33:13.140Z,-1.30
2022-12-15T13:35:42.288Z,-1.20
2022-12-15T13:38:18.050Z,-1.20
2022-12-15T13:40:44.880Z,-1.20
2022-12-15T13:43:28.023Z,-1.20
2022-12-15T13:46:02.403Z,-1.30
2022-12-15T13:48:31.810Z,-1.30
2022-12-15T13:51:23.712Z,-1.30
2022-12-15T13:54:01.939Z,-1.30
2022-12-15T13:56:53.513Z,-1.40
2022-12-15T13:59:27.430Z,-1.30
2022-12-15T14:01:54.701Z,-1.40
2022-12-15T14:04:22.977Z,-1.40
2022-12-15T14:06:54.730Z,-1.50
2022-12-15T14:09:30.187Z,-1.50
2022-12-15T14:11:58.105Z,-1.50
2022-12-15T14:14:29.460Z,-1.50
2022-12-15T14:16:59.979Z,-1.50
2022-12-15T14:19:38.466Z,-1.40
2022-12-15T14:22:27.080Z,-1.40
2022-12-15T14:25:20.162Z,-1.60
2022-12-15T14:27:50.848Z,-1.60
2022-12-15T14:30:29.293Z,-1.60
2022-12-15T14:32:56.408Z,-1.50
2022-12-15T14:35:23.241Z,-1.60
2022-12-15T14:37:50.420Z,-1.60
2022-12-15T14:40:21.323Z,-1.50
2022-12-15T14:42:52.706Z,-1.60
2022-12-15T14:45:21.978Z,-1.60
2022-12-15T14:48:30.458Z,-1.70
2022-12-15T14:50:47.659Z,-1.70
2022-12-15T14:53:17.170Z,-1.60
2022-12-15T14:55:44.649Z,-1.60
2022-12-15T14:58:26.704Z,-1.60
2022-12-15T15:00:55.416Z,-1.60
2022-12-15T15:03:04.593Z,-0.70
2022-12-15T15:03:13.304Z,-0.90
2022-12-15T15:03:38.284Z,-1.60
2022-12-15T15:06:17.873Z,-1.60
2022-12-15T15:08:49.989Z,-1.60
2022-12-15T15:11:33.919Z,-1.70
2022-12-15T15:14:05.772Z,-1.60
2022-12-15T15:16:32.640Z,-1.60
2022-12-15T15:19:01.841Z,-1.70
2022-12-15T15:21:30.225Z,-1.70
2022-12-15T15:24:12.761Z,-1.70
2022-12-15T15:26:43.253Z,-1.70
2022-12-15T15:29:39.906Z,-1.70
2022-12-15T15:32:18.267Z,-1.80
2022-12-15T15:34:46.871Z,-1.70
2022-12-15T15:37:20.025Z,-1.60
2022-12-15T15:39:55.366Z,-1.60
2022-12-15T15:42:25.454Z,-1.50
2022-12-15T15:44:57.298Z,-1.60
2022-12-15T15:47:25.339Z,-1.60
2022-12-15T15:49:58.363Z,-1.60
2022-12-15T15:52:25.822Z,-1.60
2022-12-15T15:54:53.723Z,-1.60
2022-12-15T15:57:20.493Z,-1.70
2022-12-15T15:59:47.824Z,-1.70
2022-12-15T16:02:15.181Z,-1.70
2022-12-15T16:04:43.482Z,-1.70
2022-12-15T16:07:24.181Z,-1.60
2022-12-15T16:09:52.553Z,-1.70
2022-12-15T16:12:45.451Z,-1.70
2022-12-15T16:15:19.925Z,-1.70
2022-12-15T16:17:47.592Z,-1.80
2022-12-15T16:20:17.047Z,-1.80
2022-12-15T16:22:47.040Z,-1.70
2022-12-15T16:25:46.681Z,-1.80
2022-12-15T16:28:20.491Z,-1.80
2022-12-15T16:30:48.296Z,-1.80
2022-12-15T16:33:15.510Z,-1.70
2022-12-15T16:35:43.981Z,-1.70
2022-12-15T16:38:24.581Z,-1.70
2022-12-15T16:40:52.883Z,-1.70
2022-12-15T16:43:24.863Z,-1.80
2022-12-15T16:45:54.673Z,-1.80
2022-12-15T16:48:22.132Z,-1.80
2022-12-15T16:50:55.359Z,-1.80
2022-12-15T16:53:28.735Z,-1.80
2022-12-15T16:55:57.854Z,-1.80
2022-12-15T16:58:26.359Z,-1.70
2022-12-15T17:00:56.466Z,-1.70
2022-12-15T17:03:26.703Z,-1.70
2022-12-15T17:05:56.427Z,-1.70
2022-12-15T17:08:24.477Z,-1.70
2022-12-15T17:10:51.683Z,-1.70
2022-12-15T17:13:45.570Z,-1.70
2022-12-15T17:16:16.387Z,-1.60
2022-12-15T17:18:44.624Z,-1.70
2022-12-15T17:21:17.712Z,-1.80
2022-12-15T17:23:48.724Z,-1.70
2022-12-15T17:26:27.954Z,-1.80
2022-12-15T17:28:58.409Z,-1.80
2022-12-15T17:31:30.231Z,-1.80
2022-12-15T17:34:02.671Z,-1.80
2022-12-15T17:36:29.649Z,-1.80
2022-12-15T17:39:01.314Z,-1.70
2022-12-15T17:41:58.090Z,-1.80
2022-12-15T17:44:32.836Z,-1.80
2022-12-15T17:47:02.077Z,-1.80
2022-12-15T17:49:35.037Z,-1.80
2022-12-15T17:52:06.618Z,-1.80
2022-12-15T17:54:33.980Z,-1.80
2022-12-15T17:57:00.862Z,-1.80
2022-12-15T17:59:27.620Z,-1.80
2022-12-15T18:01:57.226Z,-1.80
2022-12-15T18:04:24.458Z,-1.80
2022-12-15T18:06:57.979Z,-1.90
2022-12-15T18:09:28.662Z,-1.90
2022-12-15T18:11:55.479Z,-1.90
2022-12-15T18:14:23.018Z,-1.90
2022-12-15T18:16:52.281Z,-1.90
2022-12-15T18:19:21.258Z,-1.90
2022-12-15T18:21:48.077Z,-1.80
2022-12-15T18:24:17.194Z,-1.80
2022-12-15T18:26:44.352Z,-1.90
2022-12-15T18:29:17.850Z,-1.90
2022-12-15T18:31:47.124Z,-1.80
2022-12-15T18:34:17.689Z,-1.90
2022-12-15T18:36:45.029Z,-1.80
2022-12-15T18:39:23.968Z,-1.80
2022-12-15T18:41:52.628Z,-1.80
2022-12-15T18:44:25.305Z,-1.80
2022-12-15T18:46:52.481Z,-1.90
2022-12-15T18:49:21.989Z,-1.80
2022-12-15T18:51:49.547Z,-1.80
2022-12-15T18:54:24.260Z,-1.80
2022-12-15T18:56:51.753Z,-1.80
2022-12-15T18:59:19.050Z,-1.70
2022-12-15T19:01:47.891Z,-1.70
2022-12-15T19:04:15.471Z,-1.80
2022-12-15T19:06:42.968Z,-1.80
2022-12-15T19:09:18.752Z,-1.80
2022-12-15T19:12:06.280Z,-1.80
2022-12-15T19:14:42.711Z,-1.80
2022-12-15T19:17:34.787Z,-1.70
2022-12-15T19:20:23.005Z,-1.80
2022-12-15T19:22:49.971Z,-1.80
2022-12-15T19:25:25.928Z,-1.80
2022-12-15T19:28:00.975Z,-1.80
2022-12-15T19:30:41.615Z,-1.80
2022-12-15T19:33:09.541Z,-1.80
2022-12-15T19:35:38.394Z,-1.80
2022-12-15T19:38:06.350Z,-1.80
2022-12-15T19:40:35.013Z,-1.80
2022-12-15T19:43:04.275Z,-1.80
2022-12-15T19:45:32.712Z,-1.80
2022-12-15T19:48:00.047Z,-1.80
2022-12-15T19:50:36.636Z,-1.80
2022-12-15T19:53:06.966Z,-1.80
2022-12-15T19:55:35.759Z,-1.90
2022-12-15T19:58:27.770Z,-1.80
2022-12-15T20:00:58.628Z,-1.80
2022-12-15T20:03:27.407Z,-1.80
2022-12-15T20:05:56.034Z,-1.80
2022-12-15T20:08:26.018Z,-1.80
2022-12-15T20:10:54.357Z,-1.80
2022-12-15T20:13:22.387Z,-1.80
2022-12-15T20:15:49.311Z,-1.80
2022-12-15T20:18:16.285Z,-1.80
2022-12-15T20:20:46.309Z,-1.70
2022-12-15T20:23:26.333Z,-1.70
2022-12-15T20:25:54.621Z,-1.80
2022-12-15T20:28:27.156Z,-1.80
2022-12-15T20:30:56.244Z,-1.80
2022-12-15T20:33:23.465Z,-1.90
2022-12-15T20:35:50.548Z,-1.80
2022-12-15T20:38:34.120Z,-1.90
2022-12-15T20:41:02.347Z,-1.90
2022-12-15T20:43:31.798Z,-1.80
2022-12-15T20:46:19.820Z,-1.80
2022-12-15T20:48:48.149Z,-1.80
2022-12-15T20:51:26.582Z,-1.90
2022-12-15T20:53:55.674Z,-1.90
2022-12-15T20:56:23.309Z,-1.90
2022-12-15T20:58:56.882Z,-1.90
2022-12-15T21:01:33.592Z,-1.90
2022-12-15T21:04:02.640Z,-1.80
2022-12-15T21:06:30.232Z,-1.90
2022-12-15T21:08:57.363Z,-1.90
2022-12-15T21:11:26.517Z,-1.90
2022-12-15T21:13:56.439Z,-1.90
2022-12-15T21:16:26.018Z,-1.90
2022-12-15T21:21:55.312Z,-1.90
2022-12-15T21:24:27.243Z,-1.90
2022-12-15T21:26:54.986Z,-1.90
2022-12-15T21:29:24.183Z,-1.90
2022-12-15T21:31:51.081Z,-1.90
2022-12-15T21:34:18.430Z,-1.90
2022-12-15T21:36:49.445Z,-1.90
2022-12-15T21:39:24.209Z,-1.90
2022-12-15T21:41:51.947Z,-1.90
2022-12-15T21:44:18.777Z,-2.00
2022-12-15T21:46:46.128Z,-2.00
2022-12-15T21:49:20.648Z,-1.90
2022-12-15T21:51:52.272Z,-1.90
2022-12-15T21:54:30.353Z,-1.90
2022-12-15T21:56:58.442Z,-2.00
2022-12-15T21:59:28.123Z,-2.00
2022-12-15T22:01:58.181Z,-2.00
2022-12-15T22:04:32.039Z,-2.00
2022-12-15T22:06:59.227Z,-2.00
2022-12-15T22:09:26.096Z,-2.10
2022-12-15T22:11:55.789Z,-2.10
2022-12-15T22:14:29.595Z,-2.00
2022-12-15T22:16:58.013Z,-2.00
2022-12-15T22:19:24.965Z,-2.00
2022-12-15T22:21:52.284Z,-2.10
2022-12-15T22:24:19.589Z,-2.20
2022-12-15T22:26:49.827Z,-2.10
2022-12-15T22:29:22.109Z,-2.20
2022-12-15T22:31:50.495Z,-2.20
2022-12-15T22:34:22.871Z,-2.10
2022-12-15T22:36:51.026Z,-2.10
2022-12-15T22:39:19.416Z,-2.10
2022-12-15T22:41:50.259Z,-2.10
2022-12-15T22:44:22.121Z,-2.10
2022-12-15T22:46:50.936Z,-2.10
2022-12-15T22:49:21.048Z,-2.10
2022-12-15T22:51:47.884Z,-2.10
2022-12-15T22:54:19.020Z,-2.00
2022-12-15T22:56:52.077Z,-2.20
2022-12-15T22:59:30.690Z,-2.20
2022-12-15T23:01:58.016Z,-2.20
2022-12-15T23:04:25.355Z,-2.20
2022-12-15T23:06:52.289Z,-2.20
2022-12-15T23:09:19.186Z,-2.20
2022-12-15T23:11:46.068Z,-2.20
2022-12-15T23:14:15.319Z,-2.10
2022-12-15T23:16:43.410Z,-2.10
2022-12-15T23:19:23.587Z,-2.10
2022-12-15T23:21:51.544Z,-2.10
2022-12-15T23:24:18.595Z,-2.20
2022-12-15T23:26:46.497Z,-2.10
2022-12-15T23:29:13.359Z,-2.10
2022-12-15T23:31:40.304Z,-2.10
2022-12-15T23:34:07.224Z,-2.20
2022-12-15T23:36:34.070Z,-2.20
2022-12-15T23:39:01.147Z,-2.20
2022-12-15T23:41:29.364Z,-2.20
2022-12-15T23:43:56.499Z,-2.20
2022-12-15T23:46:23.695Z,-2.20
2022-12-15T23:48:58.007Z,-2.30
2022-12-15T23:51:27.187Z,-2.30
2022-12-15T23:53:54.718Z,-2.20
2022-12-15T23:56:25.491Z,-2.20
2022-12-15T23:58:57.792Z,-2.20
